Kaneohe, Hawaii
Current Conditions -  °F | °C
As of 10:48 AM on Saturday 20 Dec 2014 (Local Time) from PHNG Reporting Station
Broken Clouds Broken Clouds  
Wind Chill: 80°   Ceiling: 2600
Heat Index: 83°   Visibility: 10mi
Dew Point: 68°   Wind: 10mph
Humidity: 67%   Direction: 50°NE
Pressure: 30.07"   Gusts: NA
Location:  21.42°N, 157.8°W
Report Text: PHNG 202048Z AUTO 05009KT 10SM BKN026 BKN031 27/20 A3007 RMK AO2 T02670200 $
Loading
Personal Weather Stations






























Interactive Weather Map New forecast layout! Learn more

10-Day Weather Forecast

Advertisements
Track Severe Weather on mobile